Time;durP1;ratioP1;P1;durP2;ratioP2;P2;SDS_P1;SDS_P2;PMS_P1;PMS_P2;Temp;Humidity;BMP_temperature;BMP_pressure;BME280_temperature;BME280_humidity;BME280_pressure;Samples;Min_cycle;Max_cycle;Signal;HPM_P1;HPM_P2
2023/07/18 00:02:12;;;;;;;4.88;3.55;;;;;;;27.61;53.23;101098.19;5062428;28;20048;-56
2023/07/18 00:04:39;;;;;;;4.30;3.28;;;;;;;27.63;53.17;101086.28;5065537;28;20408;-56
2023/07/18 00:07:07;;;;;;;5.55;3.97;;;;;;;27.65;53.24;101092.38;5065710;28;20049;-56
2023/07/18 00:09:39;;;;;;;5.85;3.72;;;;;;;27.66;53.22;101086.75;5062428;28;20048;-57
2023/07/18 00:12:08;;;;;;;4.25;3.75;;;;;;;27.68;53.58;101092.03;5062169;28;20048;-56
2023/07/18 00:14:36;;;;;;;5.13;3.75;;;;;;;27.70;53.70;101092.69;5065929;28;20049;-56
2023/07/18 00:17:04;;;;;;;8.35;3.83;;;;;;;27.71;53.28;101095.25;5071606;28;20480;-56
2023/07/18 00:19:33;;;;;;;5.20;3.65;;;;;;;27.71;53.21;101087.09;5064608;28;20044;-58
2023/07/18 00:22:00;;;;;;;5.32;3.95;;;;;;;27.73;53.28;101090.47;5065588;28;20381;-59
2023/07/18 00:24:28;;;;;;;5.00;3.75;;;;;;;27.75;53.51;101093.00;5071971;28;20048;-59
2023/07/18 00:26:57;;;;;;;6.03;3.53;;;;;;;27.76;53.69;101081.13;5063160;28;20439;-59
2023/07/18 00:29:24;;;;;;;5.03;3.72;;;;;;;27.78;53.70;101092.66;5070914;28;20048;-59
2023/07/18 00:31:53;;;;;;;6.03;3.60;;;;;;;27.78;53.65;101090.78;5062181;28;20065;-59
2023/07/18 00:34:20;;;;;;;4.80;3.63;;;;;;;27.80;53.53;101098.78;5070687;28;20052;-59
2023/07/18 00:36:48;;;;;;;4.93;3.35;;;;;;;27.81;53.39;101095.03;5064202;28;20051;-56
2023/07/18 00:39:15;;;;;;;6.22;4.07;;;;;;;27.83;53.74;101101.13;5058329;28;20052;-56
2023/07/18 00:41:42;;;;;;;6.50;3.50;;;;;;;27.83;53.68;101104.72;5060174;28;20052;-56
2023/07/18 00:44:10;;;;;;;5.72;3.88;;;;;;;27.84;53.42;101111.84;5060572;28;20044;-56
2023/07/18 00:46:37;;;;;;;5.30;3.70;;;;;;;27.85;53.56;101113.53;5069397;28;20048;-55
2023/07/18 00:49:05;;;;;;;7.90;3.85;;;;;;;27.86;53.42;101106.19;5063806;28;20052;-56
2023/07/18 00:51:32;;;;;;;5.28;3.30;;;;;;;27.87;53.54;101105.16;5069470;28;20049;-56
2023/07/18 00:54:00;;;;;;;5.40;3.30;;;;;;;27.89;53.64;101105.00;5059318;28;20071;-56
2023/07/18 00:56:28;;;;;;;4.70;3.60;;;;;;;27.91;53.18;101111.09;5070819;28;20040;-56
2023/07/18 00:58:56;;;;;;;5.68;3.20;;;;;;;27.91;53.42;101101.03;5064841;28;20049;-56
2023/07/18 01:01:24;;;;;;;4.85;3.20;;;;;;;27.93;53.28;101103.59;5068873;28;20049;-56
2023/07/18 01:03:53;;;;;;;6.10;3.20;;;;;;;27.92;53.40;101108.22;5067622;28;20060;-56
2023/07/18 01:06:21;;;;;;;3.90;3.08;;;;;;;27.95;53.58;101102.38;5063283;28;20052;-56
2023/07/18 01:08:49;;;;;;;3.80;3.35;;;;;;;27.96;53.18;101105.97;5058228;28;20527;-57
2023/07/18 01:11:16;;;;;;;4.32;3.40;;;;;;;27.97;53.21;101115.81;5060887;28;20045;-56
2023/07/18 01:13:44;;;;;;;4.93;3.65;;;;;;;27.98;53.25;101117.50;5064892;28;20383;-56
2023/07/18 01:16:14;;;;;;;3.85;3.28;;;;;;;27.99;53.62;101119.19;5063233;28;20037;-58
2023/07/18 01:18:42;;;;;;;5.35;4.22;;;;;;;28.00;53.13;101113.59;5067281;28;20495;-59
2023/07/18 01:21:17;;;;;;;4.40;3.80;;;;;;;28.01;53.18;101111.72;5067776;28;20052;-59
2023/07/18 01:23:46;;;;;;;4.88;3.22;;;;;;;28.02;53.51;101113.38;5063657;28;20041;-59
2023/07/18 01:26:15;;;;;;;6.05;3.70;;;;;;;28.02;53.15;101113.38;5069564;28;20052;-57
2023/07/18 01:28:42;;;;;;;4.57;3.53;;;;;;;28.02;53.12;101105.22;5058224;28;20049;-59
2023/07/18 01:31:11;;;;;;;4.35;3.22;;;;;;;28.04;53.47;101108.63;5070859;28;20396;-59
2023/07/18 01:33:41;;;;;;;5.15;3.70;;;;;;;28.05;53.50;101113.03;5062821;28;20079;-59
2023/07/18 01:36:08;;;;;;;5.78;3.72;;;;;;;28.05;53.10;101105.72;5076336;28;20056;-57
2023/07/18 01:38:36;;;;;;;4.03;3.22;;;;;;;28.06;53.08;101099.22;5054941;28;20045;-59
2023/07/18 01:41:03;;;;;;;5.00;3.30;;;;;;;28.08;53.28;101110.78;5074615;28;20044;-59
2023/07/18 01:43:31;;;;;;;3.78;3.10;;;;;;;28.08;53.46;101109.94;5066525;28;20048;-59
2023/07/18 01:46:00;;;;;;;4.40;3.55;;;;;;;28.09;53.51;101109.75;5064482;28;20527;-59
2023/07/18 01:48:28;;;;;;;5.07;3.17;;;;;;;28.12;53.40;101110.44;5057501;28;20056;-59
2023/07/18 01:50:56;;;;;;;5.03;3.28;;;;;;;28.12;53.03;101105.00;5063144;28;20464;-59
2023/07/18 01:53:26;;;;;;;5.90;3.33;;;;;;;28.12;53.32;101108.56;5072854;28;20055;-59
2023/07/18 01:55:58;;;;;;;4.78;3.55;;;;;;;28.14;53.49;101119.25;5067531;28;20056;-59
2023/07/18 01:58:25;;;;;;;4.47;3.15;;;;;;;28.14;53.31;101122.81;5072756;28;20063;-59
2023/07/18 02:00:53;;;;;;;3.83;2.88;;;;;;;28.15;53.38;101116.34;5062348;28;20045;-58
2023/07/18 02:03:20;;;;;;;5.38;3.50;;;;;;;28.16;53.03;101119.94;5065831;28;20052;-59
2023/07/18 02:05:51;;;;;;;5.55;3.45;;;;;;;28.18;53.39;101120.56;5061759;28;20057;-59
2023/07/18 02:08:18;;;;;;;6.28;3.60;;;;;;;28.18;53.03;101123.28;5062668;28;20044;-55
2023/07/18 02:10:46;;;;;;;4.80;3.08;;;;;;;28.19;53.45;101124.97;5062255;28;20519;-56
2023/07/18 02:13:13;;;;;;;3.90;3.17;;;;;;;28.19;53.04;101120.38;5065766;28;20415;-56
2023/07/18 02:15:40;;;;;;;4.25;3.03;;;;;;;28.20;53.37;101121.25;5068457;28;20048;-56
2023/07/18 02:18:07;;;;;;;4.80;3.47;;;;;;;28.20;53.41;101118.53;5067963;28;20404;-56
2023/07/18 02:20:35;;;;;;;7.60;3.13;;;;;;;28.21;53.27;101115.63;5073007;28;20051;-56
2023/07/18 02:23:02;;;;;;;5.25;3.50;;;;;;;28.23;52.98;101115.41;5065833;28;20045;-56
2023/07/18 02:25:30;;;;;;;4.45;3.45;;;;;;;28.23;53.03;101124.44;5067414;28;20060;-56
2023/07/18 02:27:57;;;;;;;5.05;3.63;;;;;;;28.23;53.12;101123.59;5071875;28;20530;-56
2023/07/18 02:30:28;;;;;;;4.15;3.00;;;;;;;28.24;53.24;101126.16;5067688;28;20041;-56
2023/07/18 02:32:57;;;;;;;4.88;3.38;;;;;;;28.25;53.11;101129.72;5071224;28;20064;-56
2023/07/18 02:35:24;;;;;;;5.78;3.53;;;;;;;28.27;53.42;101135.81;5066730;28;20060;-56
2023/07/18 02:37:52;;;;;;;4.03;3.03;;;;;;;28.25;53.01;101136.00;5059654;28;20037;-56
2023/07/18 02:40:19;;;;;;;4.22;3.13;;;;;;;28.26;53.41;101137.69;5067617;28;20057;-56
2023/07/18 02:42:46;;;;;;;3.88;2.65;;;;;;;28.27;53.45;101149.41;5072281;28;20051;-56
2023/07/18 02:45:14;;;;;;;4.20;3.20;;;;;;;28.27;53.09;101147.53;5068131;28;20057;-56
2023/07/18 02:47:41;;;;;;;3.80;2.63;;;;;;;28.28;53.48;101141.09;5067468;28;20480;-56
2023/07/18 02:50:09;;;;;;;4.65;3.28;;;;;;;28.28;53.30;101148.41;5072181;28;20052;-56
2023/07/18 02:52:38;;;;;;;5.93;4.20;;;;;;;28.30;53.07;101146.34;5072396;28;20488;-56
2023/07/18 02:55:06;;;;;;;7.07;3.28;;;;;;;28.30;53.41;101149.06;5068241;28;20052;-56
2023/07/18 02:57:33;;;;;;;4.55;3.50;;;;;;;28.29;53.41;101148.22;5067015;28;20064;-57
2023/07/18 03:00:01;;;;;;;5.15;3.60;;;;;;;28.31;53.51;101162.47;5072020;28;20063;-55
2023/07/18 03:02:31;;;;;;;4.68;2.90;;;;;;;28.31;53.44;101164.34;5063607;28;20045;-56
2023/07/18 03:04:59;;;;;;;4.22;3.20;;;;;;;28.32;53.11;101166.91;5062988;28;20385;-56
2023/07/18 03:07:27;;;;;;;4.03;3.25;;;;;;;28.33;53.33;101165.03;5065454;28;20400;-59
2023/07/18 03:09:54;;;;;;;5.15;3.20;;;;;;;28.33;53.26;101167.75;5066983;28;20523;-59
2023/07/18 03:12:21;;;;;;;4.57;3.60;;;;;;;28.34;52.93;101170.28;5062424;28;20052;-59
2023/07/18 03:14:50;;;;;;;5.28;3.55;;;;;;;28.34;53.32;101172.16;5063300;28;20060;-59
2023/07/18 03:17:17;;;;;;;3.47;2.83;;;;;;;28.34;53.11;101170.28;5071112;28;20048;-59
2023/07/18 03:19:45;;;;;;;4.95;3.72;;;;;;;28.35;52.98;101177.41;5066116;28;20492;-59
2023/07/18 03:22:13;;;;;;;4.43;3.53;;;;;;;28.36;53.29;101175.59;5070428;28;20218;-60
2023/07/18 03:24:40;;;;;;;6.43;3.67;;;;;;;28.35;53.03;101191.03;5068052;28;20052;-59
2023/07/18 03:27:08;;;;;;;4.97;3.40;;;;;;;28.35;53.65;101180.13;5066560;28;20049;-60
2023/07/18 03:29:35;;;;;;;5.18;3.67;;;;;;;28.37;53.20;101184.59;5071805;28;20053;-59
2023/07/18 03:32:03;;;;;;;6.03;3.72;;;;;;;28.35;53.38;101187.47;5064609;28;20068;-59
2023/07/18 03:34:31;;;;;;;4.35;3.60;;;;;;;28.35;53.60;101188.31;5062289;28;20048;-59
2023/07/18 03:36:59;;;;;;;6.18;3.97;;;;;;;28.35;53.40;101190.19;5072055;28;20048;-59
2023/07/18 03:39:26;;;;;;;7.70;4.40;;;;;;;28.34;53.18;101202.97;5065485;28;20408;-59
2023/07/18 03:41:53;;;;;;;6.32;4.00;;;;;;;28.35;53.15;101198.34;5070752;28;20037;-59
2023/07/18 03:44:21;;;;;;;6.28;4.35;;;;;;;28.34;53.51;101204.84;5067691;28;20059;-59
2023/07/18 03:46:48;;;;;;;6.05;4.47;;;;;;;28.34;53.46;101202.13;5065630;28;20058;-59
2023/07/18 03:49:19;;;;;;;5.30;4.05;;;;;;;28.33;52.96;101201.28;5072775;28;20049;-59
2023/07/18 03:51:46;;;;;;;4.07;3.60;;;;;;;28.35;53.25;101201.06;5064398;28;20052;-59
2023/07/18 03:54:13;;;;;;;6.15;4.28;;;;;;;28.35;53.54;101195.63;5066831;28;20048;-59
2023/07/18 03:56:41;;;;;;;4.78;3.70;;;;;;;28.35;53.50;101195.63;5070671;28;20056;-59
2023/07/18 03:59:08;;;;;;;6.93;4.10;;;;;;;28.35;53.11;101199.19;5064591;28;20060;-59
2023/07/18 04:01:36;;;;;;;8.70;4.57;;;;;;;28.35;53.12;101201.06;5069650;28;20045;-59
2023/07/18 04:04:03;;;;;;;8.32;4.57;;;;;;;28.36;53.03;101208.28;5062408;28;20060;-59
2023/07/18 04:06:32;;;;;;;5.43;3.97;;;;;;;28.36;53.42;101202.81;5065568;28;20052;-59
2023/07/18 04:09:00;;;;;;;6.18;3.55;;;;;;;28.36;53.09;101197.38;5065756;28;20044;-59
2023/07/18 04:11:27;;;;;;;7.00;4.55;;;;;;;28.35;53.23;101212.81;5062507;28;20048;-59
2023/07/18 04:13:54;;;;;;;5.90;3.92;;;;;;;28.36;53.14;101219.16;5062103;28;20045;-59
2023/07/18 04:16:22;;;;;;;6.45;4.30;;;;;;;28.35;52.93;101204.63;5071731;28;20055;-59
2023/07/18 04:18:53;;;;;;;5.97;4.07;;;;;;;28.36;52.94;101202.81;5063854;28;20048;-59
2023/07/18 04:21:21;;;;;;;7.22;4.10;;;;;;;28.35;52.79;101195.63;5055665;28;20049;-59
2023/07/18 04:23:48;;;;;;;4.85;4.03;;;;;;;28.36;52.36;101202.81;5068089;28;20119;-59
2023/07/18 04:26:16;;;;;;;7.05;4.03;;;;;;;28.34;52.70;101196.66;5065859;28;20051;-59
2023/07/18 04:28:43;;;;;;;4.47;3.58;;;;;;;28.37;52.61;101211.84;5071977;28;20047;-59
2023/07/18 04:31:10;;;;;;;6.10;3.97;;;;;;;28.37;52.37;101203.66;5055893;28;20045;-59
2023/07/18 04:33:39;;;;;;;6.05;4.15;;;;;;;28.37;52.22;101209.13;5061453;28;20068;-59
2023/07/18 04:36:07;;;;;;;4.43;3.42;;;;;;;28.36;51.87;101213.72;5059856;28;20055;-65
2023/07/18 04:38:35;;;;;;;6.32;3.90;;;;;;;28.36;51.85;101208.28;5063365;28;20118;-65
2023/07/18 04:41:02;;;;;;;5.18;3.47;;;;;;;28.37;51.90;101218.13;5061416;28;20049;-65
2023/07/18 04:43:30;;;;;;;3.92;3.53;;;;;;;28.37;52.13;101226.28;5061728;28;20493;-65
2023/07/18 04:45:57;;;;;;;6.80;4.47;;;;;;;28.37;51.91;101230.91;5059600;28;20515;-65
2023/07/18 04:48:25;;;;;;;5.38;3.65;;;;;;;28.36;51.94;101227.34;5065807;28;20041;-65
2023/07/18 04:51:01;;;;;;;6.38;4.05;;;;;;;28.37;51.58;101225.44;5063901;28;20403;-65
2023/07/18 04:53:29;;;;;;;6.03;3.88;;;;;;;28.38;51.65;101241.59;5064880;28;20037;-65
2023/07/18 04:55:57;;;;;;;7.32;4.25;;;;;;;28.37;51.83;101231.75;5071410;28;20408;-65
2023/07/18 04:58:26;;;;;;;5.18;3.45;;;;;;;28.37;52.08;101226.28;5063229;28;20045;-65
2023/07/18 05:00:55;;;;;;;7.13;4.15;;;;;;;28.38;52.07;101241.59;5067744;28;20072;-65
2023/07/18 05:03:24;;;;;;;6.72;3.20;;;;;;;28.39;51.90;101234.28;5068912;28;20056;-65
2023/07/18 05:05:53;;;;;;;5.32;3.25;;;;;;;28.39;52.05;101232.38;5063749;28;20048;-65
2023/07/18 05:08:21;;;;;;;7.28;4.22;;;;;;;28.41;52.23;101237.69;5069603;28;20056;-65
2023/07/18 05:10:49;;;;;;;5.13;3.30;;;;;;;28.41;51.87;101226.78;5065359;28;20040;-65
2023/07/18 05:13:17;;;;;;;5.65;3.47;;;;;;;28.42;52.26;101234.75;5064749;28;20055;-65
2023/07/18 05:15:44;;;;;;;5.75;3.70;;;;;;;28.42;51.80;101240.19;5071305;28;20051;-65
2023/07/18 05:18:12;;;;;;;5.13;4.00;;;;;;;28.43;52.10;101231.00;5063233;28;20048;-65
2023/07/18 05:20:39;;;;;;;4.55;3.67;;;;;;;28.43;51.87;101233.72;5066730;28;20416;-65
2023/07/18 05:23:07;;;;;;;7.15;4.22;;;;;;;28.45;52.40;101239.00;5069249;28;20044;-65
2023/07/18 05:25:36;;;;;;;6.68;4.25;;;;;;;28.45;52.34;101239.00;5064337;28;20415;-65
2023/07/18 05:28:07;;;;;;;7.05;4.20;;;;;;;28.46;52.20;101235.25;5069697;28;20468;-65
2023/07/18 05:30:34;;;;;;;6.32;3.85;;;;;;;28.46;52.18;101233.38;5066200;28;20055;-65
2023/07/18 05:33:01;;;;;;;5.32;4.07;;;;;;;28.47;52.49;101231.47;5064280;28;20060;-65
2023/07/18 05:35:29;;;;;;;7.65;4.15;;;;;;;28.48;52.65;101235.88;5071052;28;20041;-65
2023/07/18 05:37:57;;;;;;;8.70;4.30;;;;;;;28.48;52.28;101234.03;5062973;28;20045;-65
2023/07/18 05:40:24;;;;;;;8.27;4.22;;;;;;;28.49;52.32;101241.19;5065892;28;20072;-65
2023/07/18 05:42:52;;;;;;;5.70;3.75;;;;;;;28.50;52.60;101237.41;5069926;28;20049;-65
2023/07/18 05:45:19;;;;;;;9.23;4.68;;;;;;;28.51;52.75;101241.81;5064602;28;20044;-65
2023/07/18 05:47:46;;;;;;;5.25;4.10;;;;;;;28.52;52.66;101239.94;5061974;28;20046;-65
2023/07/18 05:50:14;;;;;;;7.07;4.00;;;;;;;28.54;52.51;101244.19;5061089;28;20495;-65
2023/07/18 05:52:42;;;;;;;5.78;4.38;;;;;;;28.55;52.85;101242.31;5063659;28;20049;-65
2023/07/18 05:55:12;;;;;;;10.15;4.20;;;;;;;28.55;52.76;101243.16;5064322;28;20045;-65
2023/07/18 05:57:40;;;;;;;6.50;3.72;;;;;;;28.56;52.49;101247.59;5060857;28;20134;-65
2023/07/18 06:00:11;;;;;;;6.70;3.78;;;;;;;28.58;52.91;101247.41;5060596;28;20049;-65
2023/07/18 06:02:39;;;;;;;6.93;3.97;;;;;;;28.58;53.07;101248.25;5063141;28;20068;-65
2023/07/18 06:05:07;;;;;;;7.03;3.92;;;;;;;28.59;52.68;101243.63;5056044;28;20056;-65
2023/07/18 06:07:35;;;;;;;9.70;4.13;;;;;;;28.61;53.20;101247.03;5060689;28;20424;-59
2023/07/18 06:10:03;;;;;;;7.88;4.10;;;;;;;28.61;52.83;101252.50;5060859;28;20049;-59
2023/07/18 06:12:31;;;;;;;5.53;3.80;;;;;;;28.61;52.89;101247.03;5058590;28;20036;-59
2023/07/18 06:14:58;;;;;;;6.13;4.00;;;;;;;28.62;53.12;101251.44;5063978;28;20049;-59
2023/07/18 06:17:25;;;;;;;5.13;3.90;;;;;;;28.63;53.41;101252.28;5060563;28;20496;-59
2023/07/18 06:19:53;;;;;;;5.65;3.75;;;;;;;28.64;53.53;101260.28;5060201;28;20052;-59
2023/07/18 06:22:20;;;;;;;7.40;4.35;;;;;;;28.65;53.44;101263.88;5058569;28;20052;-59
2023/07/18 06:24:48;;;;;;;5.13;3.60;;;;;;;28.67;53.24;101259.06;5065061;28;20048;-59
2023/07/18 06:27:15;;;;;;;5.68;4.65;;;;;;;28.67;53.18;101259.06;5064049;28;20071;-65
2023/07/18 06:29:44;;;;;;;8.02;4.70;;;;;;;28.69;53.41;101262.47;5063979;28;20060;-65
2023/07/18 06:32:12;;;;;;;7.18;4.35;;;;;;;28.69;53.84;101257.88;5061990;28;20075;-65
2023/07/18 06:34:40;;;;;;;9.52;4.60;;;;;;;28.70;54.57;101253.25;5073729;28;20053;-65
2023/07/18 06:37:08;;;;;;;6.45;4.88;;;;;;;28.71;55.14;101258.50;5066868;28;20044;-65
2023/07/18 06:39:38;;;;;;;9.95;5.50;;;;;;;28.71;55.09;101253.06;5067511;28;20048;-65
2023/07/18 06:42:08;;;;;;;8.13;5.10;;;;;;;28.74;55.52;101257.31;5073825;28;20522;-65
2023/07/18 06:44:36;;;;;;;8.98;6.15;;;;;;;28.75;55.43;101259.00;5065249;28;20516;-61
2023/07/18 06:47:04;;;;;;;11.02;5.60;;;;;;;28.76;55.71;101266.13;5068677;28;20064;-64
2023/07/18 06:49:31;;;;;;;7.22;4.80;;;;;;;28.77;55.71;101260.53;5071492;28;20052;-64
2023/07/18 06:51:59;;;;;;;8.25;6.00;;;;;;;28.79;55.91;101266.63;5067091;28;20044;-65
2023/07/18 06:54:26;;;;;;;6.78;5.32;;;;;;;28.81;55.75;101272.75;5072355;28;20036;-64
2023/07/18 06:56:53;;;;;;;7.70;5.47;;;;;;;28.81;56.40;101264.56;5066829;28;20048;-64
2023/07/18 06:59:21;;;;;;;8.77;6.65;;;;;;;28.83;56.40;101267.09;5067221;28;20045;-64
2023/07/18 07:01:48;;;;;;;8.43;5.85;;;;;;;28.83;56.79;101256.19;5073579;28;20398;-64
2023/07/18 07:04:17;;;;;;;7.20;6.13;;;;;;;28.84;56.46;101249.72;5065089;28;20477;-64
2023/07/18 07:06:44;;;;;;;9.27;6.95;;;;;;;28.85;57.03;101254.16;5069686;28;20488;-59
2023/07/18 07:09:13;;;;;;;8.50;6.43;;;;;;;28.87;56.66;101260.25;5071547;28;20379;-58
2023/07/18 07:11:42;;;;;;;8.38;6.65;;;;;;;28.88;57.21;101266.53;5067206;28;20067;-59
2023/07/18 07:14:11;;;;;;;6.55;5.85;;;;;;;28.88;56.85;101270.09;5071805;28;20047;-59
2023/07/18 07:16:39;;;;;;;9.93;6.60;;;;;;;28.89;57.26;101269.09;5067240;28;20047;-64
2023/07/18 07:19:07;;;;;;;7.43;6.03;;;;;;;28.91;56.85;101263.44;5060978;28;20049;-64
2023/07/18 07:21:35;;;;;;;9.50;6.35;;;;;;;28.91;56.76;101267.00;5072948;28;20052;-64
2023/07/18 07:24:03;;;;;;;8.38;7.18;;;;;;;28.92;57.20;101263.25;5064645;28;20048;-64
2023/07/18 07:26:30;;;;;;;7.50;6.13;;;;;;;28.93;57.15;101264.97;5068736;28;20044;-59
2023/07/18 07:28:57;;;;;;;10.02;7.05;;;;;;;28.94;57.43;101272.09;5071029;28;20072;-61
2023/07/18 07:31:25;;;;;;;9.10;7.10;;;;;;;28.95;57.07;101273.78;5066271;28;20052;-60
2023/07/18 07:33:53;;;;;;;8.20;7.00;;;;;;;28.96;56.86;101270.03;5070847;28;20052;-61
2023/07/18 07:36:20;;;;;;;7.85;6.43;;;;;;;28.95;56.93;101268.34;5055682;28;20049;-61
2023/07/18 07:38:49;;;;;;;7.55;5.95;;;;;;;28.97;56.70;101277.22;5068909;28;20491;-60
2023/07/18 07:41:16;;;;;;;8.00;6.75;;;;;;;28.96;57.01;101275.47;5062447;28;20063;-60
2023/07/18 07:43:44;;;;;;;10.50;6.32;;;;;;;28.98;57.06;101272.63;5064677;28;20036;-60
2023/07/18 07:46:11;;;;;;;9.10;6.93;;;;;;;28.97;57.22;101271.78;5065838;28;20044;-60
2023/07/18 07:48:40;;;;;;;8.48;6.72;;;;;;;28.99;57.12;101275.16;5059933;28;20045;-59
2023/07/18 07:51:07;;;;;;;9.38;6.75;;;;;;;29.00;56.82;101274.09;5065900;28;20495;-59
2023/07/18 07:53:35;;;;;;;10.07;6.70;;;;;;;29.01;57.11;101283.16;5063491;28;20045;-59
2023/07/18 07:56:03;;;;;;;8.25;7.35;;;;;;;29.02;56.88;101293.03;5062465;28;20048;-60
2023/07/18 07:58:30;;;;;;;9.18;7.05;;;;;;;29.02;56.98;101274.78;5064494;28;20408;-60
2023/07/18 08:00:57;;;;;;;10.57;7.68;;;;;;;29.04;57.61;101277.31;5065268;28;20056;-59
2023/07/18 08:03:25;;;;;;;9.50;7.75;;;;;;;29.06;57.52;101276.09;5070230;28;20044;-60
2023/07/18 08:05:52;;;;;;;9.23;7.00;;;;;;;29.06;57.45;101273.38;5066721;28;20044;-59
2023/07/18 08:08:20;;;;;;;9.50;7.38;;;;;;;29.08;57.81;101276.75;5065548;28;20421;-60
2023/07/18 08:10:47;;;;;;;8.07;7.28;;;;;;;29.09;57.38;101272.19;5072307;28;20071;-57
2023/07/18 08:13:16;;;;;;;11.00;8.07;;;;;;;29.08;57.48;101274.03;5063599;28;20072;-57
2023/07/18 08:15:44;;;;;;;11.15;8.15;;;;;;;29.09;57.44;101274.91;5067160;28;20049;-57
2023/07/18 08:18:11;;;;;;;9.27;7.43;;;;;;;29.08;57.13;101274.03;5070970;28;20045;-58
2023/07/18 08:20:39;;;;;;;8.45;6.75;;;;;;;29.08;57.16;101267.72;5064580;28;20492;-58
2023/07/18 08:23:07;;;;;;;9.50;7.20;;;;;;;29.07;57.38;101271.50;5070002;28;20432;-57
2023/07/18 08:25:34;;;;;;;10.98;7.63;;;;;;;29.08;57.20;101274.03;5066837;28;20044;-58
2023/07/18 08:28:02;;;;;;;8.73;7.60;;;;;;;29.07;57.30;101269.63;5065494;28;20060;-54
2023/07/18 08:30:29;;;;;;;10.23;8.18;;;;;;;29.07;57.53;101269.63;5071693;28;20056;-55
2023/07/18 08:32:56;;;;;;;9.02;7.55;;;;;;;29.07;57.41;101263.31;5063885;28;20056;-54
2023/07/18 08:35:24;;;;;;;7.95;7.15;;;;;;;29.08;57.47;101262.28;5060738;28;20412;-54
2023/07/18 08:37:51;;;;;;;10.07;7.35;;;;;;;29.08;57.25;101262.28;5070288;28;20400;-53
2023/07/18 08:40:18;;;;;;;10.35;7.18;;;;;;;29.07;57.52;101264.16;5059686;28;20052;-53
2023/07/18 08:42:47;;;;;;;11.40;7.75;;;;;;;29.07;57.09;101258.72;5063807;28;20052;-55
2023/07/18 08:45:15;;;;;;;8.30;7.40;;;;;;;29.07;57.58;101261.44;5060585;28;20041;-53
2023/07/18 08:47:43;;;;;;;9.70;7.28;;;;;;;29.07;57.56;101258.72;5070062;28;20044;-54
2023/07/18 08:50:11;;;;;;;9.98;7.50;;;;;;;29.07;57.53;101253.25;5063902;28;20044;-54
2023/07/18 08:52:39;;;;;;;8.38;7.40;;;;;;;29.07;57.53;101264.16;5069629;28;20045;-55
2023/07/18 08:55:08;;;;;;;9.27;8.10;;;;;;;29.06;57.12;101257.03;5066405;28;20404;-54
2023/07/18 08:57:38;;;;;;;9.13;6.95;;;;;;;29.07;57.39;101261.44;5064749;28;20484;-55
2023/07/18 09:00:07;;;;;;;8.48;6.85;;;;;;;29.08;57.48;101254.94;5071078;28;20052;-55
2023/07/18 09:02:37;;;;;;;9.13;6.63;;;;;;;29.07;57.20;101261.44;5059421;28;20045;-54
2023/07/18 09:05:05;;;;;;;10.07;7.60;;;;;;;29.08;57.00;101268.56;5054994;28;20048;-55
2023/07/18 09:07:36;;;;;;;10.30;7.15;;;;;;;29.08;57.11;101259.56;5059087;28;20415;-59
2023/07/18 09:10:04;;;;;;;7.97;7.18;;;;;;;29.09;57.22;101264.00;5064002;28;20048;-58
2023/07/18 09:12:35;;;;;;;7.20;6.30;;;;;;;29.08;57.25;101263.13;5061208;28;20045;-58
2023/07/18 09:15:03;;;;;;;7.38;6.50;;;;;;;29.08;56.90;101260.41;5061980;28;20048;-58
2023/07/18 09:17:32;;;;;;;8.52;7.57;;;;;;;29.09;56.90;101250.38;5065138;28;20051;-55
2023/07/18 09:20:07;;;;;;;7.47;6.50;;;;;;;29.10;57.27;101245.75;5062738;28;20055;-54
2023/07/18 09:22:35;;;;;;;8.63;7.28;;;;;;;29.10;57.26;101248.47;5061034;28;20052;-54
2023/07/18 09:25:03;;;;;;;9.07;6.57;;;;;;;29.10;56.96;101251.22;5063155;28;20052;-55
2023/07/18 09:27:30;;;;;;;10.13;6.68;;;;;;;29.08;56.69;101252.22;5064377;28;20055;-59
2023/07/18 09:29:58;;;;;;;9.55;6.90;;;;;;;29.11;56.91;101247.44;5061521;28;20052;-59
2023/07/18 09:32:25;;;;;;;8.23;6.53;;;;;;;29.11;56.88;101244.72;5060767;28;20428;-59
2023/07/18 09:35:01;;;;;;;8.43;6.53;;;;;;;29.08;56.84;101233.13;5063114;28;20045;-58
2023/07/18 09:37:28;;;;;;;7.55;6.75;;;;;;;29.10;56.80;101238.41;5064430;28;20045;-55
2023/07/18 09:39:56;;;;;;;7.43;6.72;;;;;;;29.11;56.66;101234.66;5055047;28;20049;-55
2023/07/18 09:42:24;;;;;;;8.63;6.88;;;;;;;29.11;56.96;101217.44;5060757;28;20445;-55
2023/07/18 09:44:52;;;;;;;7.20;6.50;;;;;;;29.11;57.00;101217.44;5058561;28;20044;-54
2023/07/18 09:47:20;;;;;;;6.78;5.72;;;;;;;29.12;56.55;101213.69;5069779;28;20048;-59
2023/07/18 09:49:50;;;;;;;7.03;6.32;;;;;;;29.12;56.55;101216.41;5068814;28;20049;-59
2023/07/18 09:52:23;;;;;;;7.57;6.60;;;;;;;29.12;56.72;101213.69;5066921;28;20044;-59
2023/07/18 09:54:52;;;;;;;7.82;6.63;;;;;;;29.14;56.83;101214.34;5064451;28;20055;-58
2023/07/18 09:57:21;;;;;;;7.72;6.90;;;;;;;29.12;56.62;101214.53;5069205;28;20048;-54
2023/07/18 09:59:50;;;;;;;7.38;6.60;;;;;;;29.13;56.82;101204.47;5065538;28;20052;-55
2023/07/18 10:02:17;;;;;;;7.63;6.70;;;;;;;29.14;56.39;101200.72;5067930;28;20044;-54
2023/07/18 10:04:46;;;;;;;9.15;7.20;;;;;;;29.14;56.59;101203.44;5067895;28;20051;-55
2023/07/18 10:07:14;;;;;;;7.93;6.82;;;;;;;29.15;56.38;101196.97;5066364;28;20071;-59
2023/07/18 10:09:42;;;;;;;8.35;6.55;;;;;;;29.14;56.61;101196.13;5064142;28;20045;-59
2023/07/18 10:12:10;;;;;;;6.95;5.63;;;;;;;29.15;56.49;101197.81;5064693;28;20056;-58
2023/07/18 10:14:58;;;;;;;7.15;6.45;;;;;;;29.15;56.47;101194.22;5067744;28;20044;-58
2023/07/18 10:17:30;;;;;;;7.38;6.68;;;;;;;29.16;56.70;101193.19;5071694;28;20049;-55
2023/07/18 10:19:57;;;;;;;7.43;6.47;;;;;;;29.16;56.36;101199.47;5070459;28;20415;-55
2023/07/18 10:22:29;;;;;;;6.72;6.10;;;;;;;29.16;56.56;101198.63;5067711;28;20055;-55
2023/07/18 10:25:00;;;;;;;;;;;;;;;29.14;56.65;101196.13;5066801;28;20037;-55
2023/07/18 10:27:47;;;;;;;7.05;6.35;;;;;;;29.16;56.42;101187.72;5068604;28;19920;-54
2023/07/18 10:30:19;;;;;;;6.82;6.10;;;;;;;29.17;56.66;101197.59;5070637;28;20044;-54
2023/07/18 10:32:55;;;;;;;7.63;6.50;;;;;;;29.17;56.51;101189.41;5065385;28;20057;-55
2023/07/18 10:35:27;;;;;;;7.10;6.35;;;;;;;29.17;56.42;101187.56;5064280;28;20049;-54
2023/07/18 10:37:58;;;;;;;7.40;5.95;;;;;;;29.17;56.40;101176.66;5057587;28;20063;-58
2023/07/18 10:40:33;;;;;;;8.40;6.35;;;;;;;29.18;56.59;101180.22;5067319;28;20052;-58
2023/07/18 10:43:01;;;;;;;7.85;6.75;;;;;;;29.17;56.66;101168.47;5058260;28;20409;-58
2023/07/18 10:45:34;;;;;;;6.80;6.05;;;;;;;29.18;56.37;101166.59;5063844;28;20053;-55
2023/07/18 10:48:19;;;;;;;7.65;6.30;;;;;;;29.19;56.57;101168.28;5063525;28;20044;-55
2023/07/18 10:50:47;;;;;;;7.18;6.45;;;;;;;29.18;56.44;101161.97;5061522;28;20056;-55
2023/07/18 10:53:18;;;;;;;7.47;5.97;;;;;;;29.19;56.44;101151.91;5061487;28;20049;-54
2023/07/18 10:55:46;;;;;;;7.38;6.68;;;;;;;29.20;56.44;101159.91;5057454;28;20045;-55
2023/07/18 10:58:16;;;;;;;6.30;5.70;;;;;;;29.19;56.22;101143.75;5059322;28;20048;-55
2023/07/18 11:00:45;;;;;;;6.97;6.10;;;;;;;29.21;56.37;101152.56;5066392;28;20048;-55
2023/07/18 11:03:30;;;;;;;6.75;6.05;;;;;;;29.21;56.21;101153.44;5066655;28;20045;-55
2023/07/18 11:05:57;;;;;;;7.63;6.15;;;;;;;29.22;56.29;101146.94;5073108;28;20051;-55
2023/07/18 11:08:30;;;;;;;10.05;6.63;;;;;;;29.22;56.43;101146.09;5064834;28;20055;-59
2023/07/18 11:10:59;;;;;;;6.95;6.22;;;;;;;29.23;56.15;101147.78;5065152;28;20420;-58
2023/07/18 11:13:38;;;;;;;6.53;5.93;;;;;;;29.22;56.38;101137.91;5073130;28;20041;-59
2023/07/18 11:16:07;;;;;;;7.50;6.32;;;;;;;29.23;56.56;101134.16;5065525;28;20044;-58
2023/07/18 11:18:40;;;;;;;8.25;6.85;;;;;;;29.23;56.39;101128.69;5063005;28;20048;-55
2023/07/18 11:21:09;;;;;;;7.40;6.15;;;;;;;29.22;56.55;101113.38;5065785;28;20484;-55
2023/07/18 11:23:38;;;;;;;7.43;6.72;;;;;;;29.23;56.51;101106.88;5066977;28;20048;-56
2023/07/18 11:26:13;;;;;;;8.32;6.38;;;;;;;29.24;56.55;101108.56;5057027;28;20053;-55
2023/07/18 11:28:42;;;;;;;9.05;6.82;;;;;;;29.24;56.21;101106.69;5062733;28;20048;-54
2023/07/18 11:31:22;;;;;;;6.90;6.20;;;;;;;29.24;56.52;101108.56;5061449;28;20059;-55